createdAt,value
2018-02-07T04:00:41.464Z,1006.90
2018-02-07T04:01:41.438Z,1006.89
2018-02-07T04:04:25.418Z,1006.90
2018-02-07T04:05:25.717Z,1006.88
2018-02-07T04:08:10.065Z,1006.87
2018-02-07T04:09:10.065Z,1006.87
2018-02-07T04:11:54.100Z,1006.90
2018-02-07T04:12:54.070Z,1006.92
2018-02-07T04:15:38.464Z,1006.94
2018-02-07T04:16:38.810Z,1006.93
2018-02-07T04:19:23.147Z,1006.95
2018-02-07T04:20:23.085Z,1006.95
2018-02-07T04:23:06.537Z,1006.98
2018-02-07T04:24:06.089Z,1006.95
2018-02-07T04:26:50.458Z,1007.00
2018-02-07T04:27:50.421Z,1006.97
2018-02-07T04:30:33.799Z,1006.98
2018-02-07T04:31:34.189Z,1006.98
2018-02-07T04:34:18.156Z,1006.97
2018-02-07T04:35:18.481Z,1006.97
2018-02-07T04:38:01.919Z,1006.99
2018-02-07T04:39:01.816Z,1007.01
2018-02-07T04:41:46.310Z,1006.99
2018-02-07T04:42:46.223Z,1006.99
2018-02-07T04:43:46.204Z,1006.99
2018-02-07T04:44:46.156Z,1006.99
2018-02-07T04:45:46.133Z,1007.00
2018-02-07T04:46:46.145Z,1007.03
2018-02-07T04:47:45.762Z,1006.99
2018-02-07T04:48:45.729Z,1006.96
2018-02-07T04:49:45.716Z,1006.99
2018-02-07T04:50:45.704Z,1006.96
2018-02-07T04:51:45.695Z,1006.98
2018-02-07T04:52:45.679Z,1007.02
2018-02-07T04:53:45.686Z,1006.99
2018-02-07T04:54:45.675Z,1007.00
2018-02-07T04:55:46.124Z,1006.97
2018-02-07T04:56:45.936Z,1007.02
2018-02-07T04:57:45.643Z,1007.00
2018-02-07T04:58:46.054Z,1007.00
2018-02-07T04:59:45.954Z,1006.96
2018-02-07T05:00:45.979Z,1006.94
2018-02-07T05:01:45.922Z,1006.98
2018-02-07T05:02:46.011Z,1006.97
2018-02-07T05:03:45.967Z,1006.96
2018-02-07T05:04:45.909Z,1006.96
2018-02-07T05:05:45.941Z,1006.97
2018-02-07T05:06:45.523Z,1007.00
2018-02-07T05:07:45.510Z,1007.05
2018-02-07T05:08:45.512Z,1006.98
2018-02-07T05:09:45.489Z,1007.00
2018-02-07T05:10:45.475Z,1006.98
2018-02-07T05:11:45.464Z,1007.02
2018-02-07T05:12:45.457Z,1006.96
2018-02-07T05:13:45.447Z,1007.00
2018-02-07T05:14:45.442Z,1006.96
2018-02-07T05:15:45.424Z,1007.00
2018-02-07T05:16:45.440Z,1007.04
2018-02-07T05:17:45.409Z,1007.01
2018-02-07T05:18:45.399Z,1007.08
2018-02-07T05:19:45.383Z,1007.04
2018-02-07T05:19:57.375Z,1007.06
2018-02-07T05:21:45.360Z,1007.09
2018-02-07T05:22:45.351Z,1007.09
2018-02-07T05:23:45.337Z,1007.10
2018-02-07T05:24:45.330Z,1007.13
2018-02-07T05:25:45.319Z,1007.14
2018-02-07T05:26:45.299Z,1007.12
2018-02-07T05:27:45.294Z,1007.15
2018-02-07T05:28:45.274Z,1007.19
2018-02-07T05:29:45.280Z,1007.17
2018-02-07T05:30:45.258Z,1007.22
2018-02-07T05:31:45.251Z,1007.22
2018-02-07T05:32:45.247Z,1007.23
2018-02-07T05:33:45.220Z,1007.21
2018-02-07T05:34:45.236Z,1007.23
2018-02-07T05:35:45.206Z,1007.27
2018-02-07T05:36:45.196Z,1007.24
2018-02-07T05:37:45.191Z,1007.28
2018-02-07T05:38:45.174Z,1007.21
2018-02-07T05:39:45.174Z,1007.26
2018-02-07T05:40:45.153Z,1007.26
2018-02-07T05:41:45.142Z,1007.26
2018-02-07T05:42:45.132Z,1007.29
2018-02-07T05:43:45.121Z,1007.26
2018-02-07T05:44:45.107Z,1007.25
2018-02-07T05:45:45.094Z,1007.22
2018-02-07T05:46:45.085Z,1007.20
2018-02-07T05:47:45.071Z,1007.23
2018-02-07T05:48:45.061Z,1007.22
2018-02-07T05:49:45.051Z,1007.21
2018-02-07T05:50:45.046Z,1007.18
2018-02-07T05:51:45.032Z,1007.18
2018-02-07T05:52:45.009Z,1007.18
2018-02-07T05:53:45.027Z,1007.18
2018-02-07T05:54:45.008Z,1007.20
2018-02-07T05:55:44.979Z,1007.19
2018-02-07T05:56:44.988Z,1007.22
2018-02-07T05:57:44.987Z,1007.23
2018-02-07T05:58:44.959Z,1007.23
2018-02-07T05:59:44.946Z,1007.28
2018-02-07T06:00:44.941Z,1007.25
2018-02-07T06:01:44.912Z,1007.27
2018-02-07T06:02:44.909Z,1007.26
2018-02-07T06:03:44.893Z,1007.29
2018-02-07T06:04:44.883Z,1007.31
2018-02-07T06:05:44.876Z,1007.27
2018-02-07T06:06:44.863Z,1007.29
2018-02-07T06:07:44.853Z,1007.33
2018-02-07T06:08:44.845Z,1007.29
2018-02-07T06:09:44.828Z,1007.32
2018-02-07T06:10:44.825Z,1007.29
2018-02-07T06:11:44.817Z,1007.29
2018-02-07T06:12:44.799Z,1007.29
2018-02-07T06:13:44.787Z,1007.30
2018-02-07T06:14:44.775Z,1007.33
2018-02-07T06:15:44.768Z,1007.36
2018-02-07T06:16:44.753Z,1007.34
2018-02-07T06:17:44.744Z,1007.31
2018-02-07T06:18:44.725Z,1007.32
2018-02-07T06:19:44.716Z,1007.31
2018-02-07T06:20:44.718Z,1007.30
2018-02-07T06:21:44.702Z,1007.30
2018-02-07T06:22:44.701Z,1007.31
2018-02-07T06:23:44.668Z,1007.35
2018-02-07T06:24:44.677Z,1007.32
2018-02-07T06:25:44.673Z,1007.41
2018-02-07T06:26:44.645Z,1007.35
2018-02-07T06:27:44.643Z,1007.39
2018-02-07T06:28:44.661Z,1007.40
2018-02-07T06:29:44.609Z,1007.39
2018-02-07T06:30:44.620Z,1007.43
2018-02-07T06:31:44.590Z,1007.39
2018-02-07T06:32:44.586Z,1007.42
2018-02-07T06:33:44.571Z,1007.43
2018-02-07T06:34:44.562Z,1007.47
2018-02-07T06:35:44.557Z,1007.47
2018-02-07T06:36:44.554Z,1007.46
2018-02-07T06:37:44.528Z,1007.46
2018-02-07T06:38:44.520Z,1007.50
2018-02-07T06:39:44.503Z,1007.50
2018-02-07T06:40:44.504Z,1007.50
2018-02-07T06:41:44.487Z,1007.55
2018-02-07T06:42:44.485Z,1007.52
2018-02-07T06:43:44.471Z,1007.53
2018-02-07T06:44:44.463Z,1007.53
2018-02-07T06:45:44.459Z,1007.55
2018-02-07T06:46:44.421Z,1007.53
2018-02-07T06:47:44.435Z,1007.50
2018-02-07T06:48:44.411Z,1007.50
2018-02-07T06:49:44.403Z,1007.55
2018-02-07T06:50:44.402Z,1007.52
2018-02-07T06:51:44.414Z,1007.49
2018-02-07T06:52:44.368Z,1007.52
2018-02-07T06:53:44.601Z,1007.52
2018-02-07T06:54:44.358Z,1007.51
2018-02-07T06:55:44.334Z,1007.56
2018-02-07T06:56:44.326Z,1007.56
2018-02-07T06:57:44.305Z,1007.55
2018-02-07T06:58:44.303Z,1007.59
2018-02-07T06:59:44.299Z,1007.58
2018-02-07T07:00:44.294Z,1007.60
2018-02-07T07:01:44.280Z,1007.64
2018-02-07T07:02:44.249Z,1007.63
2018-02-07T07:03:44.262Z,1007.63
2018-02-07T07:04:44.221Z,1007.63
2018-02-07T07:05:44.226Z,1007.65
2018-02-07T07:06:44.228Z,1007.67
2018-02-07T07:07:44.196Z,1007.72
2018-02-07T07:08:44.191Z,1007.70
2018-02-07T07:09:44.173Z,1007.74
2018-02-07T07:10:44.177Z,1007.76
2018-02-07T07:11:44.154Z,1007.80
2018-02-07T07:12:44.135Z,1007.83
2018-02-07T07:13:44.129Z,1007.82
2018-02-07T07:14:44.117Z,1007.83
2018-02-07T07:15:44.110Z,1007.88
2018-02-07T07:16:44.092Z,1007.85
2018-02-07T07:17:44.104Z,1007.93
2018-02-07T07:18:44.084Z,1007.92
2018-02-07T07:19:44.055Z,1007.92
2018-02-07T07:20:44.051Z,1007.96
2018-02-07T07:21:44.046Z,1007.98
2018-02-07T07:22:44.035Z,1007.98
2018-02-07T07:23:44.042Z,1007.95
2018-02-07T07:24:44.009Z,1007.91
2018-02-07T07:25:44.002Z,1007.91
2018-02-07T07:26:43.991Z,1007.92
2018-02-07T07:27:43.997Z,1007.93
2018-02-07T07:28:43.971Z,1007.94
2018-02-07T07:29:43.964Z,1007.95
2018-02-07T07:30:43.970Z,1007.93
2018-02-07T07:31:43.936Z,1007.96
2018-02-07T07:32:43.922Z,1007.95
2018-02-07T07:33:43.913Z,1007.95
2018-02-07T07:34:43.901Z,1007.98
2018-02-07T07:35:43.878Z,1007.96
2018-02-07T07:36:43.893Z,1007.98
2018-02-07T07:37:43.874Z,1008.00
2018-02-07T07:38:43.861Z,1007.96
2018-02-07T07:39:43.851Z,1007.99
2018-02-07T07:40:43.836Z,1008.02
2018-02-07T07:41:43.835Z,1008.04
2018-02-07T07:42:43.811Z,1008.02
2018-02-07T07:43:43.798Z,1008.06
2018-02-07T07:44:43.791Z,1008.06
2018-02-07T07:45:43.789Z,1008.08
2018-02-07T07:46:43.766Z,1008.06
2018-02-07T07:47:43.776Z,1008.12
2018-02-07T07:48:43.749Z,1008.13
2018-02-07T07:49:43.752Z,1008.13
2018-02-07T07:50:43.728Z,1008.16
2018-02-07T07:51:43.716Z,1008.17
2018-02-07T07:52:43.700Z,1008.21
2018-02-07T07:53:43.711Z,1008.22
2018-02-07T07:54:43.671Z,1008.23
2018-02-07T07:55:43.666Z,1008.22
2018-02-07T07:56:43.657Z,1008.30
2018-02-07T07:57:43.664Z,1008.26
2018-02-07T07:58:43.646Z,1008.30
2018-02-07T07:59:43.632Z,1008.28
2018-02-07T08:00:43.616Z,1008.27
2018-02-07T08:01:43.599Z,1008.26
2018-02-07T08:02:43.602Z,1008.25
2018-02-07T08:03:43.586Z,1008.27
2018-02-07T08:04:43.587Z,1008.26
2018-02-07T08:05:43.570Z,1008.27
2018-02-07T08:06:43.557Z,1008.31
2018-02-07T08:07:43.540Z,1008.29
2018-02-07T08:08:43.528Z,1008.31
2018-02-07T08:09:43.533Z,1008.34
2018-02-07T08:10:43.522Z,1008.34
2018-02-07T08:11:43.503Z,1008.34
2018-02-07T08:12:43.489Z,1008.35
2018-02-07T08:13:43.471Z,1008.38
2018-02-07T08:14:43.466Z,1008.35
2018-02-07T08:15:43.474Z,1008.37
2018-02-07T08:16:43.460Z,1008.39
2018-02-07T08:17:43.434Z,1008.36
2018-02-07T08:18:43.432Z,1008.38
2018-02-07T08:19:43.415Z,1008.36
2018-02-07T08:20:43.401Z,1008.41
2018-02-07T08:21:43.389Z,1008.40
2018-02-07T08:22:43.402Z,1008.41
2018-02-07T08:23:43.367Z,1008.41
2018-02-07T08:24:43.360Z,1008.40
2018-02-07T08:25:43.348Z,1008.42
2018-02-07T08:26:43.357Z,1008.45
2018-02-07T08:27:43.339Z,1008.45
2018-02-07T08:28:43.321Z,1008.46
2018-02-07T08:29:43.324Z,1008.48
2018-02-07T08:30:43.307Z,1008.49
2018-02-07T08:31:43.285Z,1008.52
2018-02-07T08:32:43.282Z,1008.50
2018-02-07T08:33:43.262Z,1008.53
2018-02-07T08:34:43.262Z,1008.50
2018-02-07T08:35:43.248Z,1008.53
2018-02-07T08:36:43.236Z,1008.53
2018-02-07T08:37:43.235Z,1008.51
2018-02-07T08:38:43.220Z,1008.52
2018-02-07T08:39:43.211Z,1008.54
2018-02-07T08:40:43.191Z,1008.57
2018-02-07T08:41:43.185Z,1008.57
2018-02-07T08:42:43.183Z,1008.58
2018-02-07T08:43:43.184Z,1008.56
2018-02-07T08:44:43.153Z,1008.61
2018-02-07T08:45:43.154Z,1008.61
2018-02-07T08:46:43.136Z,1008.60
2018-02-07T08:47:43.118Z,1008.62
2018-02-07T08:48:43.115Z,1008.60
2018-02-07T08:49:43.103Z,1008.59
2018-02-07T08:50:43.092Z,1008.65
2018-02-07T08:51:43.086Z,1008.63
2018-02-07T08:52:43.082Z,1008.63
2018-02-07T08:53:43.062Z,1008.64
2018-02-07T08:54:43.065Z,1008.66
2018-02-07T08:55:43.041Z,1008.63
2018-02-07T08:56:43.033Z,1008.64
2018-02-07T08:57:43.041Z,1008.61
2018-02-07T08:58:43.028Z,1008.63
2018-02-07T08:59:42.996Z,1008.70
2018-02-07T09:00:43.005Z,1008.72
2018-02-07T09:01:42.981Z,1008.69
2018-02-07T09:02:42.968Z,1008.70
2018-02-07T09:03:42.966Z,1008.69
2018-02-07T09:04:42.952Z,1008.70
2018-02-07T09:05:42.946Z,1008.69
2018-02-07T09:06:42.930Z,1008.72
2018-02-07T09:07:42.923Z,1008.70
2018-02-07T09:08:42.906Z,1008.70
2018-02-07T09:09:42.917Z,1008.69
2018-02-07T09:10:42.904Z,1008.75
2018-02-07T09:11:42.881Z,1008.71
2018-02-07T09:12:42.885Z,1008.74
2018-02-07T09:13:42.852Z,1008.69
2018-02-07T09:14:42.841Z,1008.71
2018-02-07T09:15:42.846Z,1008.69
2018-02-07T09:16:42.827Z,1008.76
2018-02-07T09:17:42.825Z,1008.79
2018-02-07T09:18:42.813Z,1008.75
2018-02-07T09:19:42.804Z,1008.85
2018-02-07T09:20:42.803Z,1008.88
2018-02-07T09:21:42.809Z,1008.90
2018-02-07T09:22:42.778Z,1008.94
2018-02-07T09:23:42.764Z,1008.93
2018-02-07T09:24:42.750Z,1008.93
2018-02-07T09:25:42.737Z,1008.93
2018-02-07T09:26:42.743Z,1008.94
2018-02-07T09:27:42.721Z,1008.91
2018-02-07T09:28:42.724Z,1008.92
2018-02-07T09:29:42.724Z,1008.83
2018-02-07T09:30:42.695Z,1008.86
2018-02-07T09:31:42.686Z,1008.89
2018-02-07T09:32:42.666Z,1008.89
2018-02-07T09:33:42.670Z,1008.87
2018-02-07T09:34:42.659Z,1008.92
2018-02-07T09:35:42.638Z,1008.92
2018-02-07T09:36:42.632Z,1008.98
2018-02-07T09:37:42.619Z,1009.01
2018-02-07T09:38:42.633Z,1009.03
2018-02-07T09:39:42.624Z,1009.01
2018-02-07T09:40:42.602Z,1009.02
2018-02-07T09:41:42.587Z,1009.05
2018-02-07T09:42:42.575Z,1009.05
2018-02-07T09:43:42.565Z,1009.10
2018-02-07T09:44:42.561Z,1009.10
2018-02-07T09:45:42.563Z,1009.12
2018-02-07T09:46:42.548Z,1009.15
2018-02-07T09:47:42.523Z,1009.18
2018-02-07T09:48:42.515Z,1009.23
2018-02-07T09:49:42.510Z,1009.20
2018-02-07T09:50:42.499Z,1009.21
2018-02-07T09:51:42.498Z,1009.24
2018-02-07T09:52:42.497Z,1009.21
2018-02-07T09:53:42.469Z,1009.24
2018-02-07T09:54:42.463Z,1009.24
2018-02-07T09:55:42.466Z,1009.28
2018-02-07T09:56:42.432Z,1009.30
2018-02-07T09:57:42.450Z,1009.26
2018-02-07T09:58:42.424Z,1009.32
2018-02-07T09:59:42.421Z,1009.30
2018-02-07T10:00:42.413Z,1009.32
2018-02-07T10:01:42.404Z,1009.32
2018-02-07T10:02:42.400Z,1009.37
2018-02-07T10:03:42.370Z,1009.34
2018-02-07T10:04:42.383Z,1009.30
2018-02-07T10:05:42.378Z,1009.30
2018-02-07T10:06:42.342Z,1009.32
2018-02-07T10:07:42.337Z,1009.32
2018-02-07T10:08:42.345Z,1009.29
2018-02-07T10:09:42.315Z,1009.29
2018-02-07T10:10:42.304Z,1009.31
2018-02-07T10:11:42.311Z,1009.34
2018-02-07T10:12:42.301Z,1009.35
2018-02-07T10:13:42.282Z,1009.36
2018-02-07T10:14:42.286Z,1009.39
2018-02-07T10:15:42.264Z,1009.41
2018-02-07T10:16:42.261Z,1009.44
2018-02-07T10:17:42.241Z,1009.42
2018-02-07T10:18:42.238Z,1009.42
2018-02-07T10:19:42.243Z,1009.44
2018-02-07T10:20:42.214Z,1009.41
2018-02-07T10:21:42.214Z,1009.42
2018-02-07T10:22:42.242Z,1009.51
2018-02-07T10:23:42.235Z,1009.51
2018-02-07T10:24:42.177Z,1009.53
2018-02-07T10:25:42.176Z,1009.54
2018-02-07T10:26:42.161Z,1009.59
2018-02-07T10:27:42.157Z,1009.56
2018-02-07T10:28:42.154Z,1009.61
2018-02-07T10:29:42.142Z,1009.64
2018-02-07T10:30:42.157Z,1009.65
2018-02-07T10:31:42.116Z,1009.64
2018-02-07T10:32:42.114Z,1009.65
2018-02-07T10:33:42.110Z,1009.64
2018-02-07T10:34:42.112Z,1009.66
2018-02-07T10:35:42.093Z,1009.64
2018-02-07T10:36:42.082Z,1009.64
2018-02-07T10:37:42.081Z,1009.70
2018-02-07T10:38:42.062Z,1009.68
2018-02-07T10:39:42.079Z,1009.67
2018-02-07T10:40:42.047Z,1009.70
2018-02-07T10:41:42.038Z,1009.71
2018-02-07T10:42:42.031Z,1009.74
2018-02-07T10:43:42.984Z,1009.69
2018-02-07T10:44:42.008Z,1009.71
2018-02-07T10:45:42.003Z,1009.69
2018-02-07T10:46:42.001Z,1009.73
2018-02-07T10:47:41.995Z,1009.71
2018-02-07T10:48:41.981Z,1009.72
2018-02-07T10:49:41.977Z,1009.73
2018-02-07T10:50:41.959Z,1009.69
2018-02-07T10:51:41.949Z,1009.65
2018-02-07T10:52:41.954Z,1009.67
2018-02-07T10:53:41.970Z,1009.70
2018-02-07T10:54:41.930Z,1009.65
2018-02-07T10:55:41.916Z,1009.68
2018-02-07T10:56:41.910Z,1009.68
2018-02-07T10:57:41.921Z,1009.68
2018-02-07T10:58:41.888Z,1009.74
2018-02-07T10:59:41.899Z,1009.73
2018-02-07T11:00:41.879Z,1009.69
2018-02-07T11:01:41.869Z,1009.75
2018-02-07T11:02:41.878Z,1009.72
2018-02-07T11:03:41.849Z,1009.74
2018-02-07T11:04:41.843Z,1009.76
2018-02-07T11:05:41.825Z,1009.70
2018-02-07T11:06:41.834Z,1009.65
2018-02-07T11:07:41.812Z,1009.64
2018-02-07T11:08:41.813Z,1009.65
2018-02-07T11:09:41.817Z,1009.64
2018-02-07T11:10:41.777Z,1009.70
2018-02-07T11:11:41.786Z,1009.70
2018-02-07T11:12:41.791Z,1009.70
2018-02-07T11:13:41.790Z,1009.68
2018-02-07T11:14:41.757Z,1009.68
2018-02-07T11:15:41.742Z,1009.71
2018-02-07T11:16:41.762Z,1009.69
2018-02-07T11:17:41.732Z,1009.72
2018-02-07T11:18:41.720Z,1009.76
2018-02-07T11:19:41.719Z,1009.72
2018-02-07T11:20:41.716Z,1009.76
2018-02-07T11:21:41.709Z,1009.75
2018-02-07T11:22:41.700Z,1009.78
2018-02-07T11:23:41.703Z,1009.76
2018-02-07T11:24:41.688Z,1009.78
2018-02-07T11:25:41.660Z,1009.78
2018-02-07T11:26:41.656Z,1009.82
2018-02-07T11:27:41.635Z,1009.79
2018-02-07T11:28:41.630Z,1009.78
2018-02-07T11:29:41.639Z,1009.80
2018-02-07T11:30:41.635Z,1009.79
2018-02-07T11:31:41.608Z,1009.78
2018-02-07T11:32:41.597Z,1009.79
2018-02-07T11:33:41.600Z,1009.79
2018-02-07T11:34:41.588Z,1009.80
2018-02-07T11:35:41.573Z,1009.85
2018-02-07T11:36:41.567Z,1009.84
2018-02-07T11:37:41.559Z,1009.82
2018-02-07T11:38:41.557Z,1009.83
2018-02-07T11:39:41.545Z,1009.77
2018-02-07T11:40:41.527Z,1009.75
2018-02-07T11:41:41.521Z,1009.77
2018-02-07T11:42:41.515Z,1009.76
2018-02-07T11:43:41.503Z,1009.72
2018-02-07T11:44:41.495Z,1009.82
2018-02-07T11:45:41.499Z,1009.77
2018-02-07T11:46:41.496Z,1009.78
2018-02-07T11:47:41.471Z,1009.79
2018-02-07T11:48:41.478Z,1009.79
2018-02-07T11:49:41.473Z,1009.77
2018-02-07T11:50:41.446Z,1009.75
2018-02-07T11:51:41.443Z,1009.74
2018-02-07T11:52:41.436Z,1009.76
2018-02-07T11:53:41.416Z,1009.81
2018-02-07T11:54:41.411Z,1009.77
2018-02-07T11:55:41.406Z,1009.82
2018-02-07T11:56:41.391Z,1009.84
2018-02-07T11:57:41.393Z,1009.85
2018-02-07T11:58:41.397Z,1009.88
2018-02-07T11:59:41.376Z,1009.86
2018-02-07T12:00:41.432Z,1009.92
2018-02-07T12:01:41.353Z,1009.87
2018-02-07T12:02:41.359Z,1009.83
2018-02-07T12:03:41.340Z,1009.83
2018-02-07T12:04:41.343Z,1009.83
2018-02-07T12:05:41.311Z,1009.82
2018-02-07T12:06:41.312Z,1009.78
2018-02-07T12:07:41.322Z,1009.77
2018-02-07T12:08:41.293Z,1009.78
2018-02-07T12:09:41.311Z,1009.77
2018-02-07T12:10:41.279Z,1009.74
2018-02-07T12:11:41.279Z,1009.80
2018-02-07T12:12:41.272Z,1009.78
2018-02-07T12:13:41.270Z,1009.76
2018-02-07T12:14:41.252Z,1009.77
2018-02-07T12:15:41.271Z,1009.78
2018-02-07T12:16:41.227Z,1009.78
2018-02-07T12:17:41.223Z,1009.79
2018-02-07T12:18:41.211Z,1009.81
2018-02-07T12:19:41.206Z,1009.79
2018-02-07T12:20:41.195Z,1009.81
2018-02-07T12:21:41.216Z,1009.86
2018-02-07T12:22:41.175Z,1009.88
2018-02-07T12:23:41.173Z,1009.89
2018-02-07T12:24:41.163Z,1009.89
2018-02-07T12:25:41.151Z,1009.86
2018-02-07T12:26:41.150Z,1009.89
2018-02-07T12:27:41.150Z,1009.89
2018-02-07T12:28:41.122Z,1009.91
2018-02-07T12:29:41.120Z,1009.95
2018-02-07T12:30:41.115Z,1009.90
2018-02-07T12:31:41.211Z,1009.96
2018-02-07T12:32:41.105Z,1009.94
2018-02-07T12:33:41.079Z,1009.96
2018-02-07T12:34:41.084Z,1009.96
2018-02-07T12:35:41.060Z,1009.89
2018-02-07T12:36:41.052Z,1009.90
2018-02-07T12:37:41.049Z,1009.90
2018-02-07T12:38:41.041Z,1009.87
2018-02-07T12:39:41.032Z,1009.91
2018-02-07T12:40:41.013Z,1009.92
2018-02-07T12:41:41.020Z,1009.89
2018-02-07T12:42:41.005Z,1009.91
2018-02-07T12:43:40.996Z,1009.88
2018-02-07T12:44:40.990Z,1009.84
2018-02-07T12:45:40.975Z,1009.84
2018-02-07T12:46:40.984Z,1009.82
2018-02-07T12:47:40.973Z,1009.79
2018-02-07T12:48:40.951Z,1009.78
2018-02-07T12:49:40.952Z,1009.80
2018-02-07T12:50:40.931Z,1009.74
2018-02-07T12:51:40.927Z,1009.74
2018-02-07T12:52:40.934Z,1009.73
2018-02-07T12:53:40.920Z,1009.72
2018-02-07T12:54:40.902Z,1009.75
2018-02-07T12:55:40.883Z,1009.73
2018-02-07T12:56:40.887Z,1009.73
2018-02-07T12:57:40.879Z,1009.74
2018-02-07T12:58:40.868Z,1009.79
2018-02-07T12:59:40.865Z,1009.76
2018-02-07T13:00:40.858Z,1009.73
2018-02-07T13:01:40.845Z,1009.74
2018-02-07T13:02:40.828Z,1009.75
2018-02-07T13:03:40.819Z,1009.73
2018-02-07T13:04:40.806Z,1009.73
2018-02-07T13:05:40.822Z,1009.73
2018-02-07T13:06:40.829Z,1009.72
2018-02-07T13:07:40.784Z,1009.70
2018-02-07T13:08:40.783Z,1009.68
2018-02-07T13:09:40.773Z,1009.66
2018-02-07T13:10:40.781Z,1009.64
2018-02-07T13:11:40.757Z,1009.65
2018-02-07T13:12:40.751Z,1009.64
2018-02-07T13:13:40.735Z,1009.63
2018-02-07T13:14:40.723Z,1009.61
2018-02-07T13:15:40.713Z,1009.56
2018-02-07T13:16:40.716Z,1009.60
2018-02-07T13:17:40.718Z,1009.58
2018-02-07T13:18:40.701Z,1009.57
2018-02-07T13:19:40.703Z,1009.58
2018-02-07T13:20:40.678Z,1009.59
2018-02-07T13:21:40.679Z,1009.58
2018-02-07T13:22:40.657Z,1009.57
2018-02-07T13:23:40.672Z,1009.54
2018-02-07T13:24:40.652Z,1009.56
2018-02-07T13:25:40.641Z,1009.60
2018-02-07T13:26:40.628Z,1009.59
2018-02-07T13:27:40.634Z,1009.60
2018-02-07T13:28:40.649Z,1009.65
2018-02-07T13:29:40.603Z,1009.63
2018-02-07T13:30:40.588Z,1009.63
2018-02-07T13:31:40.584Z,1009.64
2018-02-07T13:32:40.588Z,1009.65
2018-02-07T13:33:40.562Z,1009.67
2018-02-07T13:34:40.575Z,1009.70
2018-02-07T13:35:40.555Z,1009.69
2018-02-07T13:36:40.540Z,1009.63
2018-02-07T13:37:40.537Z,1009.67
2018-02-07T13:38:40.534Z,1009.71
2018-02-07T13:39:40.526Z,1009.74
2018-02-07T13:40:40.514Z,1009.75
2018-02-07T13:41:40.524Z,1009.75
2018-02-07T13:42:40.492Z,1009.83
2018-02-07T13:43:40.494Z,1009.79
2018-02-07T13:44:40.490Z,1009.80
2018-02-07T13:45:40.468Z,1009.78
2018-02-07T13:46:40.453Z,1009.79
2018-02-07T13:47:40.470Z,1009.84
2018-02-07T13:48:40.439Z,1009.86
2018-02-07T13:49:40.434Z,1009.86
2018-02-07T13:50:40.425Z,1009.84
2018-02-07T13:51:40.419Z,1009.85
2018-02-07T13:52:40.404Z,1009.84
2018-02-07T13:53:40.405Z,1009.87
2018-02-07T13:54:40.389Z,1009.86
2018-02-07T13:55:40.386Z,1009.88
2018-02-07T13:56:40.378Z,1009.89
2018-02-07T13:57:40.383Z,1009.87
2018-02-07T13:58:40.364Z,1009.85
2018-02-07T13:59:40.352Z,1009.88
2018-02-07T14:00:40.354Z,1009.90
2018-02-07T14:01:40.326Z,1009.87
2018-02-07T14:02:40.327Z,1009.90
2018-02-07T14:03:40.312Z,1009.87
2018-02-07T14:04:40.310Z,1009.88
2018-02-07T14:05:40.325Z,1009.87
2018-02-07T14:06:40.296Z,1009.87
2018-02-07T14:07:40.290Z,1009.93
2018-02-07T14:08:40.266Z,1009.93
2018-02-07T14:09:40.271Z,1009.94
2018-02-07T14:10:40.251Z,1009.92
2018-02-07T14:11:40.244Z,1009.92
2018-02-07T14:12:40.235Z,1009.95
2018-02-07T14:13:40.227Z,1009.96
2018-02-07T14:14:40.210Z,1009.95
2018-02-07T14:15:40.198Z,1009.96
2018-02-07T14:16:40.193Z,1009.96
2018-02-07T14:17:40.214Z,1009.95
2018-02-07T14:18:40.182Z,1009.97
2018-02-07T14:19:40.180Z,1009.97
2018-02-07T14:20:40.166Z,1009.98
2018-02-07T14:21:40.156Z,1010.03
2018-02-07T14:22:40.155Z,1010.02
2018-02-07T14:23:40.143Z,1010.04
2018-02-07T14:24:40.121Z,1010.09
2018-02-07T14:25:40.120Z,1010.07
2018-02-07T14:26:40.115Z,1010.07
2018-02-07T14:27:40.092Z,1010.08
2018-02-07T14:28:40.092Z,1010.07
2018-02-07T14:29:40.079Z,1010.08
2018-02-07T14:30:40.066Z,1010.10
2018-02-07T14:31:40.050Z,1010.08
2018-02-07T14:32:40.100Z,1010.06
2018-02-07T14:33:40.042Z,1010.06
2018-02-07T14:34:40.044Z,1010.05
2018-02-07T14:35:40.028Z,1010.07
2018-02-07T14:36:40.028Z,1010.06
2018-02-07T14:37:39.997Z,1010.06
2018-02-07T14:38:39.996Z,1010.09
2018-02-07T14:39:39.983Z,1010.06
2018-02-07T14:40:39.974Z,1010.08
2018-02-07T14:41:39.958Z,1010.11
2018-02-07T14:42:39.976Z,1010.09
2018-02-07T14:43:39.949Z,1010.08
2018-02-07T14:44:39.948Z,1010.08
2018-02-07T14:45:39.983Z,1010.10
2018-02-07T14:46:39.939Z,1010.08
2018-02-07T14:47:39.900Z,1010.07
2018-02-07T14:48:39.900Z,1010.04
2018-02-07T14:49:39.891Z,1010.04
2018-02-07T14:50:39.893Z,1010.00
2018-02-07T14:51:39.864Z,1009.99
2018-02-07T14:52:39.870Z,1010.00
2018-02-07T14:53:39.873Z,1010.04
2018-02-07T14:54:39.840Z,1010.04
2018-02-07T14:55:39.827Z,1009.98
2018-02-07T14:56:39.818Z,1010.03
2018-02-07T14:57:39.815Z,1010.00
2018-02-07T14:58:39.799Z,1009.99
2018-02-07T14:59:39.799Z,1010.02
2018-02-07T15:00:39.775Z,1010.04
2018-02-07T15:01:39.780Z,1010.00
2018-02-07T15:02:39.752Z,1010.04
2018-02-07T15:03:39.754Z,1010.07
2018-02-07T15:04:39.738Z,1010.05
2018-02-07T15:05:39.726Z,1010.03
2018-02-07T15:06:39.729Z,1010.09
2018-02-07T15:07:39.706Z,1010.06
2018-02-07T15:08:39.703Z,1010.07
2018-02-07T15:09:39.693Z,1010.07
2018-02-07T15:10:39.693Z,1010.05
2018-02-07T15:11:39.687Z,1010.08
2018-02-07T15:12:39.674Z,1010.09
2018-02-07T15:13:39.655Z,1010.08
2018-02-07T15:14:39.644Z,1010.08
2018-02-07T15:15:39.632Z,1010.08
2018-02-07T15:16:39.626Z,1010.10
2018-02-07T15:17:39.622Z,1010.08
2018-02-07T15:18:39.623Z,1010.11
2018-02-07T15:19:39.589Z,1010.08
2018-02-07T15:20:39.584Z,1010.14
2018-02-07T15:21:39.580Z,1010.11
2018-02-07T15:22:39.564Z,1010.14
2018-02-07T15:23:39.545Z,1010.14
2018-02-07T15:24:39.542Z,1010.17
2018-02-07T15:25:39.533Z,1010.18
2018-02-07T15:26:39.537Z,1010.17
2018-02-07T15:27:39.513Z,1010.18
2018-02-07T15:28:39.494Z,1010.16
2018-02-07T15:29:39.493Z,1010.14
2018-02-07T15:30:39.493Z,1010.14
2018-02-07T15:31:39.470Z,1010.14
2018-02-07T15:32:39.478Z,1010.12
2018-02-07T15:33:39.458Z,1010.13
2018-02-07T15:34:39.458Z,1010.12
2018-02-07T15:35:39.443Z,1010.14
2018-02-07T15:36:39.423Z,1010.16
2018-02-07T15:37:39.419Z,1010.17
2018-02-07T15:38:39.400Z,1010.14
2018-02-07T15:39:39.396Z,1010.16
2018-02-07T15:40:39.394Z,1010.19
2018-02-07T15:41:39.362Z,1010.21
2018-02-07T15:42:39.366Z,1010.21
2018-02-07T15:43:39.375Z,1010.24
2018-02-07T15:44:39.341Z,1010.25
2018-02-07T15:45:39.330Z,1010.26
2018-02-07T15:46:39.347Z,1010.29
2018-02-07T15:47:39.322Z,1010.28
2018-02-07T15:48:39.298Z,1010.29
2018-02-07T15:49:39.294Z,1010.30
2018-02-07T15:50:39.274Z,1010.28
2018-02-07T15:51:39.270Z,1010.33
2018-02-07T15:52:39.279Z,1010.32
2018-02-07T15:53:39.243Z,1010.31
2018-02-07T15:54:39.260Z,1010.35
2018-02-07T15:55:39.223Z,1010.37
2018-02-07T15:56:39.211Z,1010.39
2018-02-07T15:57:39.253Z,1010.39
2018-02-07T15:58:39.221Z,1010.38
2018-02-07T15:59:39.183Z,1010.44
2018-02-07T16:00:39.170Z,1010.44
2018-02-07T16:01:39.165Z,1010.43
2018-02-07T16:02:39.165Z,1010.41
2018-02-07T16:03:39.162Z,1010.43
2018-02-07T16:04:39.130Z,1010.45
2018-02-07T16:05:39.127Z,1010.43
2018-02-07T16:06:39.115Z,1010.41
2018-02-07T16:07:39.122Z,1010.43
2018-02-07T16:08:39.105Z,1010.49
2018-02-07T16:09:39.078Z,1010.48
2018-02-07T16:10:39.072Z,1010.44
2018-02-07T16:11:39.109Z,1010.49
2018-02-07T16:12:39.059Z,1010.47
2018-02-07T16:13:39.081Z,1010.47
2018-02-07T16:14:39.050Z,1010.45
2018-02-07T16:15:39.016Z,1010.42
2018-02-07T16:16:39.037Z,1010.46
2018-02-07T16:17:39.008Z,1010.41
2018-02-07T16:18:38.980Z,1010.41
2018-02-07T16:19:38.977Z,1010.41
2018-02-07T16:20:38.957Z,1010.42
2018-02-07T16:21:38.973Z,1010.43
2018-02-07T16:22:38.941Z,1010.44
2018-02-07T16:23:38.932Z,1010.42
2018-02-07T16:24:38.919Z,1010.42